createdAt,value
2022-10-21T00:01:17.138Z,16.30
2022-10-21T00:04:34.472Z,16.10
2022-10-21T00:07:50.605Z,15.90
2022-10-21T00:13:53.966Z,15.90
2022-10-21T00:16:46.019Z,15.90
2022-10-21T00:19:41.265Z,16.00
2022-10-21T00:22:19.421Z,16.00
2022-10-21T00:24:49.613Z,16.10
2022-10-21T00:27:33.186Z,16.10
2022-10-21T00:30:26.674Z,16.30
2022-10-21T00:33:10.700Z,16.50
2022-10-21T00:35:44.670Z,16.50
2022-10-21T00:38:34.058Z,16.50
2022-10-21T00:41:29.570Z,16.50
2022-10-21T00:44:28.293Z,16.40
2022-10-21T00:51:22.524Z,16.20
2022-10-21T00:54:14.091Z,16.30
2022-10-21T00:57:41.866Z,16.40
2022-10-21T01:00:45.104Z,16.50
2022-10-21T01:03:27.896Z,16.70
2022-10-21T01:06:16.677Z,16.70
2022-10-21T01:09:08.609Z,16.70
2022-10-21T01:12:03.949Z,16.60
2022-10-21T01:15:39.389Z,16.40
2022-10-21T01:19:19.680Z,16.20
2022-10-21T01:22:37.711Z,16.00
2022-10-21T01:25:51.384Z,16.10
2022-10-21T01:29:17.720Z,16.10
2022-10-21T01:32:40.599Z,16.30
2022-10-21T01:38:53.338Z,16.30
2022-10-21T01:41:41.567Z,16.40
2022-10-21T01:44:33.390Z,16.30
2022-10-21T01:47:40.696Z,16.30
2022-10-21T01:53:13.808Z,16.30
2022-10-21T01:55:49.138Z,16.60
2022-10-21T01:58:29.291Z,16.70
2022-10-21T02:01:09.992Z,16.80
2022-10-21T02:03:49.490Z,16.80
2022-10-21T02:06:34.393Z,16.80
2022-10-21T02:09:06.353Z,17.00
2022-10-21T02:12:14.454Z,17.10
2022-10-21T02:15:43.452Z,17.20
2022-10-21T02:33:48.288Z,14.70
2022-10-21T02:58:29.068Z,14.10
2022-10-21T03:02:39.119Z,14.00
2022-10-21T03:06:05.600Z,13.80
2022-10-21T04:52:17.717Z,16.70
2022-10-21T04:57:35.980Z,16.80
2022-10-21T05:00:12.031Z,16.60
2022-10-21T05:05:23.283Z,16.50
2022-10-21T05:06:42.760Z,16.40
2022-10-21T05:09:25.402Z,16.20
2022-10-21T05:12:08.874Z,15.90
2022-10-21T05:14:41.396Z,15.70
2022-10-21T05:20:57.261Z,15.30
2022-10-21T05:45:19.660Z,14.60
2022-10-21T06:10:35.954Z,14.30
2022-10-21T06:13:09.655Z,14.20
2022-10-21T06:15:50.224Z,14.20
2022-10-21T07:02:00.125Z,14.20
2022-10-21T07:37:08.690Z,14.30
2022-10-21T07:42:21.645Z,14.40
2022-10-21T07:43:56.637Z,14.50
2022-10-21T07:46:49.616Z,14.50
2022-10-21T07:49:21.324Z,14.50
2022-10-21T07:52:43.773Z,14.60
2022-10-21T07:55:51.849Z,14.60
2022-10-21T07:59:10.185Z,14.50
2022-10-21T08:02:29.723Z,14.50
2022-10-21T08:13:37.499Z,14.40
2022-10-21T08:23:59.543Z,14.60
2022-10-21T08:26:58.481Z,14.80
2022-10-21T08:48:16.717Z,15.20
2022-10-21T08:51:19.059Z,15.20
2022-10-21T08:57:42.773Z,15.20
2022-10-21T09:04:19.531Z,15.40
2022-10-21T09:15:30.144Z,15.60
2022-10-21T09:48:45.061Z,15.40
2022-10-21T09:51:39.432Z,15.50
2022-10-21T09:54:17.619Z,15.60
2022-10-21T09:57:48.185Z,15.70
2022-10-21T10:12:40.419Z,16.40
2022-10-21T10:19:49.333Z,16.70
2022-10-21T10:26:03.803Z,16.90
2022-10-21T10:29:28.599Z,16.90
2022-10-21T10:39:20.765Z,17.00
2022-10-21T10:42:50.083Z,17.10
2022-10-21T10:52:56.003Z,17.10
2022-10-21T10:59:21.089Z,16.80
2022-10-21T11:05:29.295Z,16.70
2022-10-21T11:08:02.794Z,16.70
2022-10-21T11:10:52.654Z,16.70
2022-10-21T11:13:26.273Z,16.70
2022-10-21T11:16:11.616Z,16.80
2022-10-21T11:18:48.738Z,16.80
2022-10-21T11:21:37.995Z,16.90
2022-10-21T11:24:51.213Z,17.10
2022-10-21T11:34:51.385Z,17.30
2022-10-21T11:37:28.505Z,17.30
2022-10-21T11:40:05.126Z,17.30
2022-10-21T11:42:39.522Z,17.20
2022-10-21T11:45:32.036Z,17.20
2022-10-21T11:48:32.034Z,17.20
2022-10-21T11:51:16.524Z,17.20
2022-10-21T11:54:08.695Z,17.20
2022-10-21T11:56:58.276Z,17.10
2022-10-21T11:59:54.251Z,17.10
2022-10-21T12:02:31.374Z,17.10
2022-10-21T12:05:12.497Z,17.20
2022-10-21T12:08:07.797Z,17.20
2022-10-21T12:11:17.766Z,17.10
2022-10-21T12:14:00.554Z,17.10
2022-10-21T12:16:41.879Z,17.00
2022-10-21T12:22:46.726Z,17.00
2022-10-21T12:26:09.177Z,17.10
2022-10-21T12:32:45.058Z,17.20
2022-10-21T12:35:15.400Z,17.20
2022-10-21T12:38:37.005Z,17.20
2022-10-21T12:41:32.411Z,17.20
2022-10-21T12:44:29.537Z,17.10
2022-10-21T12:47:02.410Z,16.90
2022-10-21T12:50:07.858Z,16.80
2022-10-21T13:05:39.000Z,16.90
2022-10-21T13:09:10.452Z,17.00
2022-10-21T13:11:43.656Z,17.20
2022-10-21T13:14:47.506Z,17.20
2022-10-21T13:17:46.245Z,17.30
2022-10-21T13:20:46.318Z,17.20
2022-10-21T13:23:39.742Z,17.30
2022-10-21T13:26:25.549Z,17.30
2022-10-21T13:29:28.547Z,17.20
2022-10-21T13:32:38.346Z,17.20
2022-10-21T13:35:46.079Z,17.10
2022-10-21T13:38:21.960Z,17.00
2022-10-21T13:40:52.983Z,17.00
2022-10-21T13:44:05.201Z,16.90
2022-10-21T13:46:42.569Z,16.70
2022-10-21T13:49:31.149Z,16.60
2022-10-21T13:51:59.581Z,16.40
2022-10-21T13:54:35.793Z,16.20
2022-10-21T13:57:07.602Z,16.10
2022-10-21T13:59:36.729Z,16.10
2022-10-21T14:02:11.093Z,16.00
2022-10-21T14:04:58.261Z,15.90
2022-10-21T14:07:39.076Z,15.90
2022-10-21T14:10:18.670Z,15.90
2022-10-21T14:12:50.592Z,15.80
2022-10-21T14:15:26.308Z,15.60
2022-10-21T14:18:02.799Z,15.60
2022-10-21T14:20:46.279Z,15.50
2022-10-21T14:27:04.616Z,15.40
2022-10-21T14:33:31.747Z,15.50
2022-10-21T14:36:23.600Z,15.60
2022-10-21T14:43:20.075Z,15.50
2022-10-21T14:49:51.648Z,15.50
2022-10-21T14:53:27.375Z,15.60
2022-10-21T15:03:49.015Z,15.80
2022-10-21T15:10:02.890Z,15.90
2022-10-21T15:15:54.010Z,16.00
2022-10-21T15:18:49.522Z,16.00
2022-10-21T15:21:44.511Z,16.10
2022-10-21T15:24:22.700Z,16.10
2022-10-21T15:27:00.215Z,16.10
2022-10-21T15:29:36.039Z,16.10
2022-10-21T15:32:08.794Z,16.10
2022-10-21T15:34:59.520Z,16.20
2022-10-21T15:41:04.639Z,16.10
2022-10-21T17:01:33.647Z,15.90
2022-10-21T18:33:07.297Z,15.30
2022-10-21T18:37:09.256Z,15.20
2022-10-21T18:41:08.528Z,15.10
2022-10-21T18:48:17.000Z,15.50
2022-10-21T18:50:50.543Z,15.50
2022-10-21T18:53:22.776Z,15.50
2022-10-21T18:59:59.724Z,15.50
2022-10-21T19:02:54.305Z,15.50
2022-10-21T19:05:58.647Z,15.50
2022-10-21T19:16:46.829Z,15.40
2022-10-21T19:23:48.062Z,15.60
2022-10-21T19:30:16.968Z,15.70
2022-10-21T19:32:46.943Z,15.70
2022-10-21T19:36:15.299Z,15.70
2022-10-21T19:38:45.129Z,15.60
2022-10-21T19:42:10.757Z,15.50
2022-10-21T19:45:05.478Z,15.50
2022-10-21T19:48:11.383Z,15.50
2022-10-21T19:51:13.043Z,15.50
2022-10-21T19:53:58.656Z,15.50
2022-10-21T19:56:55.197Z,15.40
2022-10-21T20:00:39.309Z,15.30
2022-10-21T20:03:19.062Z,15.30
2022-10-21T20:05:55.455Z,15.30
2022-10-21T20:08:27.924Z,15.30
2022-10-21T20:11:09.648Z,15.30
2022-10-21T20:14:23.725Z,15.30
2022-10-21T20:17:08.396Z,15.20
2022-10-21T20:21:00.275Z,15.20
2022-10-21T20:26:30.158Z,15.10
2022-10-21T20:29:06.967Z,15.10
2022-10-21T20:31:52.591Z,15.10
2022-10-21T20:34:20.801Z,15.00
2022-10-21T20:36:53.598Z,15.00
2022-10-21T20:39:22.311Z,15.00
2022-10-21T20:41:58.806Z,14.90
